Time;durP1;ratioP1;P1;durP2;ratioP2;P2;SDS_P1;SDS_P2;PMS_P1;PMS_P2;Temp;Humidity;BMP_temperature;BMP_pressure;BME280_temperature;BME280_humidity;BME280_pressure;Samples;Min_cycle;Max_cycle;Signal;HPM_P1;HPM_P2
2022/11/25 00:01:30;;;;;;;4.60;3.63;;;6.30;99.90;;;6.41;nan;100511.09;4988561;28;20653;-64
2022/11/25 00:03:58;;;;;;;3.77;3.47;;;6.30;99.90;;;6.43;nan;100511.84;4960741;28;20643;-64
2022/11/25 00:06:32;;;;;;;5.87;3.57;;;6.30;99.90;;;6.41;nan;100505.09;4985585;28;20662;-64
2022/11/25 00:09:09;;;;;;;4.20;2.47;;;6.30;99.90;;;6.65;nan;100507.13;4971582;28;21016;-64
2022/11/25 00:11:38;;;;;;;4.47;3.60;;;6.40;99.90;;;6.57;nan;100495.53;4977142;28;20646;-64
2022/11/25 00:14:09;;;;;;;11.60;5.00;;;6.40;99.90;;;6.52;nan;100505.31;4989771;28;21004;-64
2022/11/25 00:16:36;;;;;;;4.27;3.10;;;6.40;99.90;;;6.60;nan;100498.75;4969590;28;20635;-64
2022/11/25 00:19:03;;;;;;;4.03;3.53;;;6.40;99.90;;;6.50;nan;100497.63;4976264;28;20662;-64
2022/11/25 00:21:33;;;;;;;3.87;3.37;;;6.40;99.90;;;6.49;nan;100500.31;4998609;28;20664;-64
2022/11/25 00:24:04;;;;;;;5.13;3.40;;;6.40;99.90;;;6.58;nan;100504.97;5009914;28;21170;-64
2022/11/25 00:26:34;;;;;;;6.53;3.80;;;6.40;99.90;;;6.59;nan;100509.22;5011174;28;20618;-64
2022/11/25 00:29:04;;;;;;;8.20;5.00;;;6.50;99.90;;;6.57;nan;100508.47;4994922;28;20683;-65
2022/11/25 00:31:35;;;;;;;4.40;3.33;;;6.50;99.90;;;6.44;nan;100504.91;5004610;28;20614;-65
2022/11/25 00:34:02;;;;;;;4.83;4.00;;;6.40;99.90;;;6.50;nan;100501.97;4997300;28;20619;-64
2022/11/25 00:36:33;;;;;;;3.07;2.73;;;6.40;99.90;;;6.41;nan;100507.69;4989023;28;21069;-65
2022/11/25 00:39:06;;;;;;;2.87;2.57;;;6.30;99.90;;;6.59;nan;100514.41;4983972;28;20677;-64
2022/11/25 00:44:34;;;;;;;1.75;1.42;;;6.40;99.90;;;6.51;nan;100514.84;4982954;28;20647;-64
2022/11/25 00:47:19;;;;;;;1.43;1.40;;;6.40;99.90;;;6.19;nan;100508.91;4988333;28;20214;-64
2022/11/25 00:49:50;;;;;;;1.60;1.50;;;6.30;99.90;;;6.17;nan;100513.34;4980651;28;20663;-64
2022/11/25 00:52:26;;;;;;;4.13;1.37;;;6.20;99.90;;;6.05;nan;100507.97;4994844;28;20621;-64
2022/11/25 00:54:53;;;;;;;1.70;1.53;;;6.10;99.90;;;6.17;nan;100508.16;5008525;28;21029;-64
2022/11/25 00:57:22;;;;;;;5.83;2.87;;;6.10;99.90;;;6.01;nan;100514.25;5001637;28;21016;-65
2022/11/25 00:59:49;;;;;;;4.17;3.67;;;6.00;99.90;;;6.04;nan;100499.41;4997263;28;20657;-64
2022/11/25 01:02:18;;;;;;;8.83;3.77;;;6.00;99.90;;;6.03;nan;100502.88;5002759;28;20681;-64
2022/11/25 01:04:46;;;;;;;3.60;3.07;;;6.00;99.90;;;6.11;nan;100505.06;4982652;28;20632;-64
2022/11/25 01:07:13;;;;;;;6.03;3.73;;;6.00;99.90;;;6.17;nan;100507.31;4988268;28;20619;-64
2022/11/25 01:09:40;;;;;;;3.67;2.73;;;6.00;99.90;;;6.26;nan;100517.16;4991760;28;20669;-65
2022/11/25 01:12:07;;;;;;;3.40;3.00;;;6.00;99.90;;;6.23;nan;100519.91;5008967;28;20646;-64
2022/11/25 01:14:34;;;;;;;4.57;3.67;;;6.00;99.90;;;6.21;nan;100519.16;5002783;28;20634;-65
2022/11/25 01:17:01;;;;;;;8.03;4.37;;;6.00;99.90;;;6.23;nan;100527.69;5013579;28;20644;-65
2022/11/25 01:19:29;;;;;;;4.17;3.70;;;6.00;99.90;;;6.18;nan;100532.28;4994716;28;20666;-65
2022/11/25 01:21:56;;;;;;;3.53;3.15;;;6.10;99.90;;;6.19;nan;100529.63;4997914;28;21257;-64
2022/11/25 01:24:25;;;;;;;2.73;2.47;;;6.10;99.90;;;6.20;nan;100523.50;5012786;28;20587;-64
2022/11/25 01:26:54;;;;;;;2.03;1.87;;;6.10;99.90;;;6.26;nan;100519.75;4998552;28;20655;-66
2022/11/25 01:29:21;;;;;;;1.10;1.10;;;6.10;99.90;;;6.22;nan;100524.25;4972712;28;20658;-64
2022/11/25 01:31:49;;;;;;;2.10;1.20;;;6.10;99.90;;;5.88;nan;100533.94;5003171;28;20638;-62
2022/11/25 01:34:20;;;;;;;1.60;1.03;;;6.00;99.90;;;5.80;nan;100536.94;4994100;28;20618;-65
2022/11/25 01:36:47;;;;;;;2.37;1.80;;;5.90;99.90;;;5.72;nan;100528.75;4995224;28;21265;-65
2022/11/25 01:39:23;;;;;;;2.50;2.30;;;5.80;99.90;;;5.74;nan;100531.25;4977492;28;20673;-66
2022/11/25 01:41:57;;;;;;;5.00;3.47;;;5.80;99.90;;;5.84;nan;100537.63;4990788;28;20665;-65
2022/11/25 01:44:30;;;;;;;4.47;3.10;;;5.70;99.90;;;5.91;nan;100537.22;4994965;28;21068;-66
2022/11/25 01:47:18;;;;;;;3.83;3.53;;;5.80;99.90;;;5.94;nan;100534.47;4995579;28;20207;-65
2022/11/25 01:49:56;;;;;;;5.83;4.00;;;5.80;99.90;;;6.01;nan;100530.63;4983695;28;20677;-65
2022/11/25 01:52:47;;;;;;;4.63;3.38;;;5.80;99.90;;;6.02;nan;100527.13;4997203;28;20682;-65
2022/11/25 01:55:20;;;;;;;2.87;2.23;;;5.90;99.90;;;6.01;nan;100519.41;4993185;28;20233;-66
2022/11/25 01:57:54;;;;;;;2.95;2.53;;;5.90;99.90;;;5.87;nan;100530.56;4980383;28;20704;-67
2022/11/25 02:00:21;;;;;;;2.08;1.95;;;5.80;99.90;;;5.83;nan;100531.59;4975519;28;20226;-66
2022/11/25 02:02:52;;;;;;;2.33;2.13;;;5.80;99.90;;;5.92;nan;100525.94;5001580;28;20230;-66
2022/11/25 02:05:26;;;;;;;2.03;1.93;;;5.80;99.90;;;5.84;nan;100524.69;4991462;28;20199;-66
2022/11/25 02:07:58;;;;;;;1.98;1.63;;;5.80;99.90;;;5.76;nan;100519.91;4972881;28;21239;-66
2022/11/25 02:10:29;;;;;;;2.10;1.90;;;5.70;99.90;;;5.75;nan;100520.81;4992948;28;20242;-66
2022/11/25 02:12:57;;;;;;;1.45;1.15;;;5.70;99.90;;;5.64;nan;100517.13;4984970;23;20686;-67
2022/11/25 02:15:25;;;;;;;3.30;2.20;;;5.60;99.90;;;5.77;nan;100516.38;4957942;28;20201;-67
2022/11/25 02:17:52;;;;;;;1.65;1.55;;;5.70;99.90;;;5.80;nan;100520.56;4945475;28;20219;-68
2022/11/25 02:20:21;;;;;;;2.78;2.28;;;5.70;99.90;;;5.60;nan;100513.84;4953893;29;20216;-66
2022/11/25 02:23:24;;;;;;;2.55;2.33;;;5.60;99.90;;;5.78;nan;100522.41;4949145;29;20229;-66
2022/11/25 02:25:52;;;;;;;1.73;1.52;;;5.60;99.90;;;5.65;nan;100519.63;4939110;29;20291;-68
2022/11/25 02:28:26;;;;;;;1.02;1.02;;;5.60;99.90;;;5.64;nan;100524.91;4952138;28;20213;-67
2022/11/25 02:30:53;;;;;;;0.63;0.63;;;5.60;99.90;;;5.38;nan;100511.59;4952855;29;20208;-66
2022/11/25 02:33:20;;;;;;;1.00;1.00;;;5.50;99.90;;;5.47;nan;100510.28;4952297;28;20232;-66
2022/11/25 02:35:59;;;;;;;1.77;1.05;;;5.50;99.90;;;5.49;nan;100516.19;4953068;29;20203;-67
2022/11/25 02:38:50;;;;;;;1.52;1.38;;;5.50;99.90;;;5.48;nan;100512.78;4951838;28;20226;-67
2022/11/25 02:41:23;;;;;;;1.98;1.77;;;5.50;99.90;;;5.64;nan;100515.41;4932403;29;20619;-66
2022/11/25 02:43:50;;;;;;;3.25;2.95;;;5.50;99.90;;;5.70;nan;100515.06;4953446;28;20239;-66
2022/11/25 02:46:22;;;;;;;1.98;1.88;;;5.60;99.90;;;5.86;nan;100509.91;4964956;28;20262;-67
2022/11/25 02:48:52;;;;;;;1.90;1.80;;;5.70;99.90;;;5.79;nan;100508.56;4929259;28;20212;-67
2022/11/25 02:51:35;;;;;;;2.42;2.25;;;5.70;99.90;;;5.85;nan;100505.66;4951077;28;20711;-66
2022/11/25 02:54:02;;;;;;;1.97;1.83;;;5.70;99.90;;;5.88;nan;100500.28;4952190;29;20732;-67
2022/11/25 02:56:33;;;;;;;1.45;1.45;;;5.70;99.90;;;5.99;nan;100495.38;4952462;28;20640;-66
2022/11/25 02:59:01;;;;;;;2.17;1.40;;;5.80;99.90;;;5.87;nan;100496.06;4952949;29;20201;-66
2022/11/25 03:01:30;;;;;;;2.20;2.00;;;5.80;99.90;;;5.90;nan;100496.69;4934232;28;20636;-67
2022/11/25 03:03:57;;;;;;;1.27;1.27;;;5.90;99.90;;;6.04;nan;100493.38;4949841;28;20695;-66
2022/11/25 03:06:24;;;;;;;1.40;1.30;;;5.90;99.90;;;5.97;nan;100498.06;4935136;29;20633;-66
2022/11/25 03:08:52;;;;;;;1.17;1.17;;;6.00;99.90;;;6.01;nan;100499.53;4952013;28;20263;-66
2022/11/25 03:11:19;;;;;;;0.50;0.50;;;6.00;99.90;;;6.09;nan;100502.53;4951981;29;20763;-66
2022/11/25 03:13:46;;;;;;;2.00;1.50;;;6.00;99.90;;;6.15;nan;100501.38;4955889;28;20243;-67
2022/11/25 03:16:13;;;;;;;1.00;1.00;;;6.10;99.90;;;6.07;nan;100501.78;4954558;28;21204;-66
2022/11/25 03:18:40;;;;;;;0.70;0.70;;;6.10;99.90;;;6.30;nan;100495.34;4951931;28;20263;-66
2022/11/25 03:21:07;;;;;;;0.90;0.90;;;6.20;99.90;;;6.28;nan;100498.94;4952425;29;20636;-66
2022/11/25 03:23:34;;;;;;;1.30;1.20;;;6.20;99.90;;;6.41;nan;100494.75;4952151;29;21239;-66
2022/11/25 03:26:05;;;;;;;1.13;1.10;;;6.30;99.90;;;6.28;nan;100505.78;4935814;29;20268;-66
2022/11/25 03:28:32;;;;;;;1.37;1.27;;;6.30;99.90;;;6.46;nan;100487.50;4950926;28;20640;-67
2022/11/25 03:30:59;;;;;;;1.43;1.33;;;6.30;99.90;;;6.45;nan;100491.03;4951689;29;20674;-66
2022/11/25 03:33:26;;;;;;;1.60;1.20;;;6.30;99.90;;;6.49;nan;100488.19;4945843;28;21464;-66
2022/11/25 03:35:53;;;;;;;1.30;0.90;;;6.40;99.90;;;6.67;nan;100478.50;4952660;29;20699;-66
2022/11/25 03:38:20;;;;;;;1.07;0.97;;;6.50;99.90;;;6.60;nan;100482.38;4949266;28;20205;-66
2022/11/25 03:40:48;;;;;;;2.57;1.70;;;6.50;99.90;;;6.74;nan;100491.03;4951893;29;20679;-67
2022/11/25 03:43:15;;;;;;;6.93;2.20;;;6.50;99.90;;;6.87;nan;100491.16;4950929;28;20672;-67
2022/11/25 03:45:42;;;;;;;2.67;1.47;;;6.60;99.90;;;6.69;nan;100487.88;4968418;28;20707;-66
2022/11/25 03:48:09;;;;;;;2.30;1.60;;;6.60;99.90;;;6.77;nan;100490.03;4950016;28;20706;-65
2022/11/25 03:50:36;;;;;;;0.83;0.83;;;6.60;99.90;;;6.78;nan;100491.69;4951243;29;20639;-66
2022/11/25 03:53:02;;;;;;;0.87;0.87;;;6.60;99.90;;;6.87;nan;100491.16;4934449;29;20668;-66
2022/11/25 03:55:30;;;;;;;1.07;1.00;;;6.70;99.90;;;6.81;nan;100499.28;4938419;29;20645;-67
2022/11/25 03:57:56;;;;;;;0.57;0.57;;;6.70;99.90;;;6.80;nan;100500.19;4951303;28;20636;-65
2022/11/25 04:00:23;;;;;;;0.60;0.60;;;6.70;99.90;;;6.78;nan;100497.72;4951692;29;20625;-66
2022/11/25 04:02:50;;;;;;;0.80;0.60;;;6.80;99.90;;;6.90;nan;100496.13;4951755;28;21216;-66
2022/11/25 04:05:17;;;;;;;1.03;1.03;;;6.80;99.90;;;6.87;nan;100483.38;4952072;28;20633;-66
2022/11/25 04:07:44;;;;;;;0.53;0.53;;;6.80;99.90;;;6.85;nan;100490.41;4951323;28;21024;-66
2022/11/25 04:10:11;;;;;;;0.83;0.70;;;6.80;99.90;;;6.96;nan;100490.63;4951041;29;20637;-69
2022/11/25 04:12:47;;;;;;;0.80;0.80;;;6.80;99.90;;;6.84;nan;100492.16;4951387;28;20668;-66
2022/11/25 04:15:15;;;;;;;1.17;0.80;;;6.90;99.90;;;6.99;nan;100485.22;4953846;28;21237;-66
2022/11/25 04:17:42;;;;;;;0.50;0.50;;;6.90;99.90;;;6.91;nan;100495.22;4954799;28;20706;-67
2022/11/25 04:20:12;;;;;;;0.73;0.60;;;6.90;99.90;;;7.00;nan;100487.75;4954750;29;21256;-68
2022/11/25 04:22:39;;;;;;;0.50;0.47;;;6.90;99.90;;;6.98;nan;100489.56;4937665;28;20734;-66
2022/11/25 04:25:07;;;;;;;1.20;0.63;;;6.90;99.90;;;6.89;nan;100490.13;4947122;29;20624;-68
2022/11/25 04:27:34;;;;;;;0.93;0.93;;;6.90;99.90;;;6.74;nan;100495.38;4954717;28;20664;-66
2022/11/25 04:30:01;;;;;;;0.93;0.93;;;6.80;99.90;;;6.86;nan;100495.50;4949988;28;20640;-67
2022/11/25 04:32:28;;;;;;;1.40;1.00;;;6.80;99.90;;;6.94;nan;100495.88;4954258;29;20664;-68
2022/11/25 04:34:55;;;;;;;0.93;0.93;;;6.80;99.90;;;6.99;nan;100498.19;4954649;29;20672;-66
2022/11/25 04:37:21;;;;;;;0.73;0.47;;;6.90;99.90;;;6.93;nan;100489.03;4954426;28;21185;-66
2022/11/25 04:39:48;;;;;;;0.70;0.70;;;6.90;99.90;;;6.93;nan;100478.66;4955076;29;20632;-66
2022/11/25 04:42:31;;;;;;;4.37;1.40;;;6.90;99.90;;;6.95;nan;100465.59;4954003;28;20632;-65
2022/11/25 04:45:14;;;;;;;1.13;0.67;;;6.90;99.90;;;7.23;nan;100456.97;4952446;28;20631;-66
2022/11/25 04:47:49;;;;;;;0.80;0.80;;;7.00;99.90;;;7.11;nan;100458.56;4954227;28;21204;-66
2022/11/25 04:50:19;;;;;;;1.20;1.20;;;7.00;99.90;;;6.89;nan;100458.19;4955865;29;20644;-65
2022/11/25 04:52:46;;;;;;;2.47;1.80;;;6.90;99.90;;;6.98;nan;100458.44;4954495;28;20719;-66
2022/11/25 04:55:14;;;;;;;1.33;0.90;;;6.90;99.90;;;7.02;nan;100464.31;4954289;29;20636;-66
2022/11/25 04:57:41;;;;;;;4.33;1.47;;;6.90;99.90;;;7.19;nan;100477.09;4953968;28;20633;-66
2022/11/25 05:00:09;;;;;;;1.70;1.47;;;7.00;99.90;;;7.27;nan;100469.69;4955764;29;21008;-65
2022/11/25 05:02:36;;;;;;;1.20;1.20;;;7.00;99.90;;;7.27;nan;100474.03;4953814;28;20668;-66
2022/11/25 05:05:04;;;;;;;1.07;0.70;;;7.10;99.90;;;7.04;nan;100467.63;4954791;29;20636;-66
2022/11/25 05:07:31;;;;;;;2.03;1.40;;;7.00;99.90;;;7.05;nan;100475.31;4953743;28;20645;-66
2022/11/25 05:09:58;;;;;;;1.27;1.27;;;7.00;99.90;;;6.98;nan;100481.78;4953902;29;20621;-66
2022/11/25 05:12:27;;;;;;;1.50;1.43;;;6.90;99.90;;;6.90;nan;100477.97;4953700;28;21260;-67
2022/11/25 05:14:55;;;;;;;1.67;1.57;;;6.90;99.90;;;7.04;nan;100491.00;4936766;29;21104;-66
2022/11/25 05:17:26;;;;;;;1.20;1.20;;;6.90;99.90;;;6.96;nan;100485.44;4954281;28;20640;-65
2022/11/25 05:19:53;;;;;;;2.20;1.50;;;6.90;99.90;;;6.93;nan;100489.03;4954734;29;20636;-66
2022/11/25 05:22:24;;;;;;;0.33;0.33;;;6.90;99.90;;;7.04;nan;100485.78;4953813;28;20642;-66
2022/11/25 05:24:52;;;;;;;2.00;0.93;;;6.90;99.90;;;7.06;nan;100494.31;4953100;29;20668;-67
2022/11/25 05:27:20;;;;;;;1.70;1.23;;;6.90;99.90;;;6.93;nan;100494.22;4953114;28;20637;-66
2022/11/25 05:29:48;;;;;;;0.80;0.53;;;6.90;99.90;;;6.93;nan;100488.19;4952636;28;20648;-66
2022/11/25 05:32:21;;;;;;;2.73;1.87;;;6.90;99.90;;;7.01;nan;100501.53;4953141;28;20694;-67
2022/11/25 05:34:48;;;;;;;1.47;1.47;;;6.90;99.90;;;7.21;nan;100500.34;4937890;29;21047;-66
2022/11/25 05:37:15;;;;;;;1.80;1.70;;;7.00;99.90;;;7.17;nan;100507.50;4953581;28;20640;-68
2022/11/25 05:39:47;;;;;;;1.43;1.20;;;7.00;99.90;;;6.95;nan;100509.69;4953369;28;20648;-66
2022/11/25 05:42:13;;;;;;;1.53;1.43;;;6.90;99.90;;;7.02;nan;100517.03;4952552;29;20632;-66
2022/11/25 05:44:40;;;;;;;1.87;1.43;;;6.90;99.90;;;7.14;nan;100515.44;4961992;28;20676;-66
2022/11/25 05:47:07;;;;;;;3.63;1.00;;;7.00;99.90;;;7.08;nan;100510.63;4953541;29;20662;-68
2022/11/25 05:49:34;;;;;;;1.40;1.30;;;7.00;99.90;;;7.03;nan;100523.88;4952467;28;20648;-66
2022/11/25 05:52:01;;;;;;;1.57;1.47;;;7.00;99.90;;;6.92;nan;100530.63;4952715;28;20854;-69
2022/11/25 05:54:28;;;;;;;4.40;0.53;;;6.90;99.90;;;6.97;nan;100529.41;4953084;29;20727;-67
2022/11/25 05:56:55;;;;;;;1.37;1.27;;;6.90;99.90;;;6.91;nan;100532.38;4936350;29;20981;-67
2022/11/25 05:59:22;;;;;;;1.00;0.97;;;6.90;99.90;;;6.99;nan;100534.50;4953170;28;20644;-67
2022/11/25 06:01:52;;;;;;;1.20;1.10;;;6.90;99.90;;;7.02;nan;100527.41;4952671;28;20644;-67
2022/11/25 06:04:19;;;;;;;1.13;1.00;;;6.90;99.90;;;6.92;nan;100526.25;4943168;28;20755;-66
2022/11/25 06:06:46;;;;;;;1.00;0.87;;;6.90;99.90;;;6.92;nan;100531.44;4952886;29;20640;-66
2022/11/25 06:09:13;;;;;;;1.57;1.47;;;6.90;99.90;;;7.09;nan;100535.66;4953317;28;20632;-65
2022/11/25 06:11:40;;;;;;;1.80;1.40;;;6.90;99.90;;;7.23;nan;100530.47;4953953;29;21219;-67
2022/11/25 06:14:07;;;;;;;1.00;0.90;;;7.00;99.90;;;7.07;nan;100537.47;4954555;28;20680;-66
2022/11/25 06:16:34;;;;;;;2.07;0.83;;;7.00;99.90;;;7.22;nan;100540.97;4953851;29;20644;-67
2022/11/25 06:19:05;;;;;;;0.40;0.40;;;7.10;99.90;;;7.15;nan;100548.28;4945777;28;20647;-65
2022/11/25 06:21:32;;;;;;;4.17;1.17;;;7.00;99.90;;;7.15;nan;100544.84;4952768;29;21058;-66
2022/11/25 06:24:00;;;;;;;1.17;1.10;;;7.10;99.90;;;7.14;nan;100538.81;4952093;28;20727;-66
2022/11/25 06:26:27;;;;;;;1.20;1.20;;;7.10;99.90;;;7.37;nan;100527.88;4953184;29;20699;-66
2022/11/25 06:28:55;;;;;;;1.23;1.23;;;7.20;99.90;;;7.16;nan;100536.94;4952129;28;20639;-66
2022/11/25 06:31:24;;;;;;;1.90;1.80;;;7.10;99.90;;;7.35;nan;100544.47;4953173;29;20779;-66
2022/11/25 06:33:53;;;;;;;0.90;0.90;;;7.10;99.90;;;7.41;nan;100555.31;4952160;28;20676;-66
2022/11/25 06:36:21;;;;;;;1.23;1.23;;;7.20;99.90;;;7.51;nan;100572.03;4952201;28;20640;-66
2022/11/25 06:38:53;;;;;;;0.50;0.47;;;7.30;99.90;;;7.28;nan;100569.13;4951186;28;21201;-64
2022/11/25 06:41:21;;;;;;;1.00;1.00;;;7.20;99.90;;;7.31;nan;100574.97;4937679;28;20637;-64
2022/11/25 06:43:48;;;;;;;1.40;1.40;;;7.20;99.90;;;7.18;nan;100578.38;4956996;28;20687;-65
2022/11/25 06:46:18;;;;;;;1.13;1.13;;;7.20;99.90;;;7.25;nan;100575.34;4954734;28;20636;-65
2022/11/25 06:48:51;;;;;;;1.23;1.17;;;7.10;99.90;;;7.32;nan;100576.66;4953141;28;20743;-66
2022/11/25 06:51:18;;;;;;;1.53;1.43;;;7.20;99.90;;;7.36;nan;100572.09;4935398;29;20641;-66
2022/11/25 06:53:46;;;;;;;2.30;1.23;;;7.20;99.90;;;7.35;nan;100581.63;4951564;28;21049;-66
2022/11/25 06:56:18;;;;;;;2.87;1.60;;;7.20;99.90;;;7.36;nan;100585.91;4952627;29;20633;-66
2022/11/25 06:58:46;;;;;;;1.07;1.03;;;7.20;99.90;;;7.31;nan;100590.53;4931305;29;21019;-68
2022/11/25 07:01:23;;;;;;;1.07;1.07;;;7.20;99.90;;;7.45;nan;100592.31;4951460;28;20636;-66
2022/11/25 07:03:59;;;;;;;0.57;0.57;;;7.30;99.90;;;7.36;nan;100590.28;4951099;28;20672;-67
2022/11/25 07:06:27;;;;;;;1.40;1.30;;;7.30;99.90;;;7.28;nan;100590.75;4949142;28;20646;-67
2022/11/25 07:08:54;;;;;;;1.90;1.80;;;7.20;99.90;;;7.25;nan;100595.25;4951879;29;20633;-67
2022/11/25 07:11:30;;;;;;;1.73;1.63;;;7.20;99.90;;;7.37;nan;100597.97;4951834;28;21275;-68
2022/11/25 07:14:03;;;;;;;1.70;1.30;;;7.30;99.90;;;7.38;nan;100591.84;4939628;28;20801;-67
2022/11/25 07:16:31;;;;;;;3.50;2.37;;;7.20;99.90;;;7.43;nan;100576.00;4938638;29;20632;-66
2022/11/25 07:19:00;;;;;;;8.00;2.00;;;7.20;99.90;;;7.39;nan;100582.31;4931386;29;21249;-66
2022/11/25 07:21:29;;;;;;;0.47;0.47;;;7.30;99.90;;;7.39;nan;100580.53;4952027;29;21216;-67
2022/11/25 07:23:59;;;;;;;1.70;1.60;;;7.20;99.90;;;7.20;nan;100579.94;4934856;28;20746;-66
2022/11/25 07:26:31;;;;;;;1.73;1.63;;;7.20;99.90;;;7.29;nan;100579.41;4934855;29;20676;-66
2022/11/25 07:29:01;;;;;;;1.70;1.60;;;7.20;99.90;;;7.35;nan;100583.41;4951929;28;20691;-68
2022/11/25 07:31:41;;;;;;;1.00;1.00;;;7.20;99.90;;;7.45;nan;100595.72;4934048;29;21277;-67
2022/11/25 07:34:18;;;;;;;2.47;0.67;;;7.30;99.90;;;7.37;nan;100597.97;4931392;29;20676;-66
2022/11/25 07:36:48;;;;;;;2.07;1.93;;;7.30;99.90;;;7.47;nan;100606.91;4935868;29;21054;-68
2022/11/25 07:39:19;;;;;;;2.73;1.83;;;7.30;99.90;;;7.37;nan;100612.72;4949564;28;20695;-67
2022/11/25 07:41:52;;;;;;;4.73;1.80;;;7.30;99.90;;;7.18;nan;100604.31;4933077;29;20637;-66
2022/11/25 07:44:19;;;;;;;1.50;1.40;;;7.30;99.90;;;7.22;nan;100604.03;4954016;28;20710;-66
2022/11/25 07:46:49;;;;;;;3.27;0.87;;;7.20;99.90;;;7.28;nan;100601.13;4957219;28;21138;-65
2022/11/25 07:49:25;;;;;;;3.13;2.10;;;7.30;99.90;;;7.13;nan;100604.59;4948737;28;21198;-64
2022/11/25 07:52:03;;;;;;;1.93;1.10;;;7.20;99.90;;;7.24;nan;100609.97;4952903;29;21263;-65
2022/11/25 07:54:32;;;;;;;1.63;1.53;;;7.20;99.90;;;7.33;nan;100614.66;4956360;28;20667;-64
2022/11/25 07:56:58;;;;;;;1.37;1.27;;;7.20;99.90;;;7.42;nan;100618.47;4956100;29;20624;-65
2022/11/25 07:59:26;;;;;;;1.50;1.40;;;7.30;99.90;;;7.23;nan;100612.69;4955081;28;20651;-65
2022/11/25 08:01:54;;;;;;;1.63;1.43;;;7.20;99.90;;;7.25;nan;100616.00;4955153;28;20667;-65
2022/11/25 08:04:22;;;;;;;2.10;1.40;;;7.20;99.90;;;7.22;nan;100621.41;4955168;29;21050;-65
2022/11/25 08:06:51;;;;;;;1.13;0.57;;;7.20;99.90;;;7.34;nan;100629.31;4955167;29;21286;-64
2022/11/25 08:09:22;;;;;;;2.33;1.23;;;7.20;99.90;;;7.30;nan;100622.63;4955290;28;20698;-63
2022/11/25 08:11:49;;;;;;;1.10;1.07;;;7.30;99.90;;;7.14;nan;100619.22;4955549;29;20644;-64
2022/11/25 08:14:17;;;;;;;0.87;0.80;;;7.20;99.90;;;7.37;nan;100625.69;5006543;23;20775;-65
2022/11/25 08:16:45;;;;;;;2.90;1.97;;;7.20;99.90;;;7.28;nan;100621.03;4995573;28;21014;-63
2022/11/25 08:19:14;;;;;;;0.90;0.90;;;7.20;99.90;;;7.41;nan;100624.59;5013139;28;21177;-63
2022/11/25 08:21:42;;;;;;;1.47;1.33;;;7.20;99.90;;;7.27;nan;100630.56;5023663;28;21018;-63
2022/11/25 08:24:18;;;;;;;2.80;1.30;;;7.30;99.90;;;7.53;nan;100642.03;5004067;28;20673;-63
2022/11/25 08:26:46;;;;;;;1.80;1.70;;;7.30;99.90;;;7.62;nan;100639.72;4997902;28;20625;-64
2022/11/25 08:29:15;;;;;;;0.57;0.43;;;7.40;99.90;;;7.44;nan;100642.56;5009363;28;20642;-63
2022/11/25 08:31:42;;;;;;;1.30;1.20;;;7.40;99.90;;;7.55;nan;100640.19;5013776;28;20629;-63
2022/11/25 08:34:21;;;;;;;1.77;1.67;;;7.40;99.90;;;7.70;nan;100639.25;5003089;28;20670;-64
2022/11/25 08:36:48;;;;;;;2.17;1.73;;;7.40;99.90;;;7.78;nan;100643.06;5012559;28;20630;-64
2022/11/25 08:39:16;;;;;;;2.53;1.17;;;7.50;99.90;;;7.84;nan;100637.50;5007774;28;20744;-66
2022/11/25 08:42:04;;;;;;;2.40;2.20;;;7.60;99.90;;;7.83;nan;100645.41;5006240;28;20685;-66
2022/11/25 08:44:32;;;;;;;3.90;1.97;;;7.60;99.90;;;7.65;nan;100652.53;5004162;28;20670;-66
2022/11/25 08:46:59;;;;;;;3.07;1.90;;;7.50;99.90;;;7.65;nan;100662.06;5008736;28;21016;-66
2022/11/25 08:49:29;;;;;;;2.20;1.67;;;7.50;99.90;;;7.55;nan;100656.59;5005323;28;20638;-65
2022/11/25 08:51:57;;;;;;;0.83;0.80;;;7.50;99.90;;;7.42;nan;100655.66;5008748;28;21212;-65
2022/11/25 08:54:24;;;;;;;2.20;1.47;;;7.40;99.90;;;7.37;nan;100656.84;5011103;28;20664;-66
2022/11/25 08:56:51;;;;;;;1.00;1.00;;;7.40;99.90;;;7.45;nan;100660.63;4993967;28;20623;-66
2022/11/25 08:59:18;;;;;;;1.77;1.50;;;7.40;99.90;;;7.61;nan;100664.03;5008234;28;20631;-66
2022/11/25 09:01:45;;;;;;;2.07;1.53;;;7.40;99.90;;;7.51;nan;100659.47;4992954;28;20642;-66
2022/11/25 09:04:12;;;;;;;2.67;1.03;;;7.40;99.90;;;7.55;nan;100671.34;5008472;28;20681;-65
2022/11/25 09:06:39;;;;;;;2.20;1.10;;;7.50;99.90;;;7.51;nan;100665.50;5010966;28;20626;-63
2022/11/25 09:09:06;;;;;;;1.90;1.43;;;7.50;99.90;;;7.65;nan;100669.84;5000929;28;21070;-63
2022/11/25 09:11:33;;;;;;;2.87;2.47;;;7.50;99.90;;;7.64;nan;100668.19;4992870;28;20639;-62
2022/11/25 09:14:00;;;;;;;3.67;1.37;;;7.50;99.90;;;7.68;nan;100672.28;5008896;28;20753;-63
2022/11/25 09:16:27;;;;;;;2.03;1.70;;;7.50;99.90;;;7.82;nan;100674.88;5003154;28;20639;-65
2022/11/25 09:18:54;;;;;;;1.60;1.50;;;7.60;99.90;;;7.86;nan;100678.97;4998163;28;21006;-64
2022/11/25 09:21:23;;;;;;;2.40;1.10;;;7.60;99.90;;;8.09;nan;100688.00;5012809;28;20641;-65
2022/11/25 09:23:52;;;;;;;1.60;1.33;;;7.80;99.90;;;8.20;nan;100686.41;5006455;28;20662;-65
2022/11/25 09:26:29;;;;;;;1.80;1.67;;;7.90;99.90;;;8.27;nan;100697.28;4994112;28;20627;-64
2022/11/25 09:28:57;;;;;;;1.00;0.97;;;8.00;99.90;;;8.24;nan;100697.47;5001706;28;20689;-64
2022/11/25 09:31:24;;;;;;;1.90;1.10;;;8.00;99.90;;;8.38;nan;100702.66;5004740;28;20670;-64
2022/11/25 09:33:51;;;;;;;1.90;1.80;;;8.00;99.90;;;8.48;nan;100709.81;5010283;28;20666;-66
2022/11/25 09:36:19;;;;;;;1.40;1.33;;;8.10;99.90;;;8.45;nan;100714.38;5002439;28;20685;-64
2022/11/25 09:38:47;;;;;;;1.80;1.60;;;8.20;99.90;;;8.60;nan;100716.84;5009406;28;20632;-64
2022/11/25 09:48:44;;;;;;;0.63;0.63;;;8.30;99.90;;;8.65;nan;100715.72;4968323;28;20625;-64
2022/11/25 09:51:37;;;;;;;2.13;1.70;;;8.40;99.90;;;8.77;nan;100727.97;5004218;28;20644;-65
2022/11/25 09:54:21;;;;;;;3.13;2.83;;;8.50;99.90;;;8.90;nan;100734.88;5002873;28;21315;-66
2022/11/25 09:56:57;;;;;;;1.80;1.70;;;8.50;99.90;;;8.85;nan;100734.34;4982895;28;20642;-63
2022/11/25 09:59:34;;;;;;;2.13;1.97;;;8.60;99.90;;;8.86;nan;100730.81;4983873;28;20652;-65
2022/11/25 10:02:19;;;;;;;4.23;2.30;;;8.60;99.90;;;8.90;nan;100734.88;4987820;28;20994;-65
2022/11/25 10:04:52;;;;;;;1.77;1.67;;;8.60;99.90;;;8.87;nan;100737.69;4988216;28;20707;-66
2022/11/25 10:07:39;;;;;;;1.90;1.40;;;8.70;99.90;;;8.89;nan;100738.44;4994762;28;20638;-66
2022/11/25 10:10:17;;;;;;;2.17;1.17;;;8.60;99.90;;;8.93;nan;100739.06;4982369;28;20642;-66
2022/11/25 10:12:47;;;;;;;1.37;1.27;;;8.70;99.90;;;9.04;nan;100741.81;4997208;28;21005;-65
2022/11/25 10:15:33;;;;;;;1.40;1.17;;;8.80;99.90;;;8.99;nan;100744.72;4988937;28;20698;-68
2022/11/25 10:18:09;;;;;;;26.27;12.20;;;8.80;99.90;;;9.19;nan;100746.91;4985870;28;20653;-62
2022/11/25 10:20:40;;;;;;;8.20;4.57;;;8.90;99.90;;;9.20;nan;100761.56;4977479;28;20644;-64
2022/11/25 10:23:20;;;;;;;1.93;1.73;;;8.90;99.90;;;9.22;nan;100759.69;4979874;28;20673;-68
2022/11/25 10:25:59;;;;;;;1.57;1.47;;;8.90;99.90;;;9.25;nan;100753.47;5004199;28;20675;-66
2022/11/25 10:28:32;;;;;;;1.23;0.70;;;9.00;99.90;;;8.84;nan;100752.69;4994579;28;20621;-67
2022/11/25 10:31:28;;;;;;;5.13;2.10;;;8.90;99.90;;;9.01;nan;100760.22;4990849;28;20635;-66
2022/11/25 10:33:58;;;;;;;2.77;1.97;;;8.80;99.90;;;9.19;nan;100759.91;4987465;28;20665;-66
2022/11/25 10:36:39;;;;;;;0.83;0.83;;;8.90;99.90;;;9.24;nan;100759.63;5010908;28;20636;-65
2022/11/25 10:39:25;;;;;;;2.50;1.40;;;8.90;99.90;;;9.29;nan;100757.53;4999094;28;20699;-66
2022/11/25 10:42:03;;;;;;;3.10;2.00;;;9.00;99.90;;;9.37;nan;100756.09;4995537;28;20637;-67
2022/11/25 10:44:32;;;;;;;2.23;1.80;;;9.10;99.90;;;9.33;nan;100751.19;4998598;28;20675;-66
2022/11/25 10:47:45;;;;;;;2.00;1.70;;;9.10;99.90;;;9.26;nan;100763.78;5007779;28;20660;-67
2022/11/25 10:50:19;;;;;;;1.03;1.03;;;9.10;99.90;;;9.38;nan;100763.00;4997317;28;21066;-67
2022/11/25 10:52:54;;;;;;;2.73;1.87;;;9.10;99.90;;;9.47;nan;100764.16;4988069;28;20638;-66
2022/11/25 10:55:32;;;;;;;8.10;2.00;;;9.10;99.90;;;9.39;nan;100769.06;4999274;28;20633;-67
2022/11/25 10:58:34;;;;;;;2.10;1.90;;;9.20;99.90;;;9.46;nan;100772.06;5004010;28;20690;-64
2022/11/25 11:01:24;;;;;;;1.87;1.13;;;9.10;99.90;;;9.48;nan;100776.25;5003542;28;20716;-67
2022/11/25 11:04:09;;;;;;;1.00;1.00;;;9.20;99.90;;;9.61;nan;100782.31;4999988;28;20684;-64
2022/11/25 11:06:45;;;;;;;1.40;1.07;;;9.20;99.90;;;9.61;nan;100776.28;4993122;28;20664;-67